Terminal Aerodrome Forecast
Issued by NWS Charleston, WV

Current Version | Previous Version | Graphics & Text | Print | Product List | Glossary On
Versions: 1 2 3 4 5 6 7 8 9 10 11 12 13 14 15 16 17 18 19 20 21 22
000
FTUS41 KRLX 281148
TAFCRW
TAF
KCRW 281148Z 2812/2912 20005KT P6SM SCT035 BKN080
     FM281400 22005KT 5SM -SHRA BR BKN020
     FM281600 24007KT P6SM BKN035
     FM281900 25010KT P6SM VCTS BKN035CB
     FM282300 VRB03KT 6SM BR SCT030
     FM290800 00000KT 2SM BR SCT001 SCT200=

USA.gov is the U.S. government's official web portal to all federal, state and local government web resources and services.